リヴァプール の空港の天気 - METARとTAF

リバプール・ジョン・レノン空港 ( EGGP / LPL ) - イギリス リヴァプール
飛行場実況気象(Metar)
観測時間11/12 02:50 GMT (11/12 02:50 UTC)
風向・風速西 10m/s
視程10km以上
天気現象弱いしゅう雨
少しの雲 雲底高度 430m
全天の8割程度の雲 雲底高度 1100m
気温7℃
湿度81%
気圧996hPa
METAREGGP 120250Z 28019KT 9999 -SHRA FEW014 BKN036 07/04 Q0996
過去の天気等 Google飛行場航空写真 Wunderground天気予報

過去48時間のMETAR

飛行場予報(TAF)
発表時間: 11/11 23:00 GMT (11/11 23:00 UTC)
予報対象時間: 12日0時 GMT ~ 13日0時 GMT
風向・風速西 9m/s
視程10km以上
少しの雲 雲底高度 370m
全天の4割程度の雲 雲底高度 910m
12日0時 GMT ~ 12日4時 GMT に一時的に
風向・風速西北西 11m/s 瞬間風速 17m/s
視程6000m
天気現象しゅう雨
12日0時 GMT ~ 12日4時 GMT に 確率 30% で一時的に
視程4000m
天気現象強いしゅう雨
全天の8割程度の雲 雲底高度 370m
12日4時 GMT ~ 12日7時 GMT に徐々に
風向・風速西 11m/s 瞬間風速 17m/s
12日4時 GMT ~ 12日12時 GMT に一時的に
風向・風速西 15m/s 瞬間風速 23m/s
視程6000m
天気現象
全天の8割程度の雲 雲底高度 370m
12日4時 GMT ~ 12日12時 GMT に 確率 30% で一時的に
視程4000m
天気現象強い雨
全天の8割程度の雲 雲底高度 240m
12日12時 GMT ~ 12日15時 GMT に徐々に
風向・風速北西 9m/s
12日12時 GMT ~ 12日24時 GMT に一時的に
風向・風速北西 11m/s 瞬間風速 16m/s
視程6000m
天気現象しゅう雨
TAF EGGP 112300Z 1200/1224 28018KT 9999 FEW012 SCT030
TEMPO 1200/1204 29022G34KT 6000 SHRA
PROB30 TEMPO 1200/1204 4000 +SHRA BKN012
BECMG 1204/1207 28022G34KT
TEMPO 1204/1212 28030G44KT 6000 RA BKN012
PROB30 TEMPO 1204/1212 4000 +RA BKN008
BECMG 1212/1215 31018KT
TEMPO 1212/1224 31022G32KT 6000 SHRA